Terminal Aerodrome Forecast
Issued by NWS

Home | Current Version | Previous Version | Text Only | Print | Product List | Glossary On
Versions: 1 2 3 4 5 6 7 8 9 10 11 12 13 14 15 16 17 18
000
FTUS46 KMTR 030500
TAFSNS
TAF
KSNS 030525Z 0306/0406 25011KT P6SM SKC
     FM031000 26009KT P6SM OVC008
     FM031800 28011KT P6SM SKC
     FM032100 27015G21KT P6SM SKC
     FM040400 24012KT P6SM BKN015=

USA.gov is the U.S. government's official web portal to all federal, state and local government web resources and services.